createdAt,value
2019-03-04T00:01:12.110Z,12.50
2019-03-04T00:03:38.314Z,12.60
2019-03-04T00:06:04.547Z,12.60
2019-03-04T00:08:32.779Z,12.60
2019-03-04T00:10:58.999Z,12.60
2019-03-04T00:13:25.210Z,12.70
2019-03-04T00:15:51.534Z,12.70
2019-03-04T00:18:17.734Z,12.70
2019-03-04T00:20:43.979Z,12.70
2019-03-04T00:23:10.178Z,12.70
2019-03-04T00:25:36.398Z,12.70
2019-03-04T00:28:03.134Z,12.70
2019-03-04T00:30:29.366Z,12.80
2019-03-04T00:32:55.587Z,12.80
2019-03-04T00:35:21.972Z,12.80
2019-03-04T00:37:48.204Z,12.70
2019-03-04T00:40:15.785Z,12.70
2019-03-04T00:42:41.998Z,12.70
2019-03-04T00:45:09.470Z,12.70
2019-03-04T00:47:35.743Z,12.60
2019-03-04T00:50:03.871Z,12.60
2019-03-04T00:52:30.090Z,12.60
2019-03-04T00:54:56.302Z,12.60
2019-03-04T00:57:22.538Z,12.50
2019-03-04T00:59:48.970Z,12.50
2019-03-04T01:02:15.175Z,12.40
2019-03-04T01:04:41.403Z,12.40
2019-03-04T01:07:07.599Z,12.40
2019-03-04T01:09:33.826Z,12.40
2019-03-04T01:12:00.055Z,12.50
2019-03-04T01:14:26.262Z,12.50
2019-03-04T01:16:52.492Z,12.50
2019-03-04T01:19:18.723Z,12.50
2019-03-04T01:21:44.954Z,12.40
2019-03-04T01:24:11.164Z,12.40
2019-03-04T01:26:52.646Z,12.50
2019-03-04T01:29:18.863Z,12.50
2019-03-04T01:31:45.099Z,12.50
2019-03-04T01:34:11.303Z,12.50
2019-03-04T01:36:37.527Z,12.60
2019-03-04T01:39:05.159Z,12.60
2019-03-04T01:41:31.571Z,12.60
2019-03-04T01:43:57.795Z,12.60
2019-03-04T01:46:23.994Z,12.60
2019-03-04T01:48:50.217Z,12.60
2019-03-04T01:51:16.422Z,12.60
2019-03-04T01:53:42.642Z,12.60
2019-03-04T01:56:08.890Z,12.50
2019-03-04T01:58:35.120Z,12.50
2019-03-04T02:01:01.325Z,12.50
2019-03-04T02:03:27.523Z,12.50
2019-03-04T02:05:53.751Z,12.50
2019-03-04T02:08:20.063Z,12.50
2019-03-04T02:10:46.307Z,12.50
2019-03-04T02:13:12.518Z,12.50
2019-03-04T02:15:38.747Z,12.50
2019-03-04T02:18:05.355Z,12.50
2019-03-04T02:20:31.574Z,12.50
2019-03-04T02:22:57.783Z,12.50
2019-03-04T02:25:45.721Z,12.50
2019-03-04T02:28:12.191Z,12.50
2019-03-04T02:30:38.547Z,12.50
2019-03-04T02:33:04.955Z,12.40
2019-03-04T02:35:31.179Z,12.50
2019-03-04T02:37:57.378Z,12.50
2019-03-04T02:40:23.598Z,12.50
2019-03-04T02:42:49.811Z,12.50
2019-03-04T02:45:18.821Z,12.60
2019-03-04T02:47:45.955Z,12.60
2019-03-04T02:50:12.772Z,12.70
2019-03-04T02:52:58.204Z,12.80
2019-03-04T02:55:24.415Z,12.80
2019-03-04T02:57:50.634Z,12.80
2019-03-04T03:00:17.859Z,12.80
2019-03-04T03:02:44.078Z,12.60
2019-03-04T03:05:10.593Z,12.60
2019-03-04T03:07:36.819Z,12.40
2019-03-04T03:10:11.072Z,12.40
2019-03-04T03:12:37.414Z,12.40
2019-03-04T03:15:09.737Z,12.30
2019-03-04T03:17:36.044Z,12.30
2019-03-04T03:20:04.966Z,12.30
2019-03-04T03:22:31.467Z,12.20
2019-03-04T03:24:57.689Z,12.20
2019-03-04T03:27:23.893Z,12.20
2019-03-04T03:29:52.020Z,12.30
2019-03-04T03:32:18.260Z,12.20
2019-03-04T03:34:44.489Z,12.40
2019-03-04T03:37:10.703Z,12.40
2019-03-04T03:39:36.923Z,12.40
2019-03-04T03:42:03.346Z,12.50
2019-03-04T03:44:29.691Z,12.50
2019-03-04T03:46:55.935Z,12.50
2019-03-04T03:49:22.404Z,12.50
2019-03-04T03:51:48.669Z,12.50
2019-03-04T03:54:14.869Z,12.50
2019-03-04T03:56:41.400Z,12.50
2019-03-04T03:59:08.015Z,12.50
2019-03-04T04:01:34.247Z,12.50
2019-03-04T04:04:00.668Z,12.50
2019-03-04T04:06:27.003Z,12.50
2019-03-04T04:08:53.413Z,12.50
2019-03-04T04:11:19.624Z,12.50
2019-03-04T04:13:45.852Z,12.50
2019-03-04T04:16:12.060Z,12.50
2019-03-04T04:18:38.282Z,12.50
2019-03-04T04:21:04.486Z,12.50
2019-03-04T04:25:57.748Z,11.20
2019-03-04T04:28:23.983Z,12.50
2019-03-04T04:30:50.206Z,12.50
2019-03-04T04:33:16.416Z,12.50
2019-03-04T04:35:42.843Z,12.50
2019-03-04T04:38:09.051Z,12.40
2019-03-04T05:09:58.574Z,12.00
2019-03-04T05:12:24.789Z,12.10
2019-03-04T05:14:51.010Z,12.10
2019-03-04T05:19:43.805Z,12.20
2019-03-04T05:22:10.015Z,12.20
2019-03-04T05:24:36.226Z,12.20
2019-03-04T05:29:29.193Z,12.30
2019-03-04T05:34:22.086Z,12.40
2019-03-04T05:36:48.312Z,12.60
2019-03-04T05:39:14.518Z,12.60
2019-03-04T05:41:40.852Z,12.70
2019-03-04T05:44:07.162Z,12.70
2019-03-04T05:46:33.377Z,12.70
2019-03-04T05:48:59.590Z,12.70
2019-03-04T05:51:25.820Z,12.70
2019-03-04T05:53:52.026Z,12.70
2019-03-04T05:56:18.246Z,12.70
2019-03-04T05:58:44.455Z,12.70
2019-03-04T06:01:17.554Z,12.70
2019-03-04T06:03:49.082Z,12.80
2019-03-04T06:06:17.223Z,12.80
2019-03-04T06:08:43.445Z,12.80
2019-03-04T06:13:36.440Z,12.70
2019-03-04T06:18:29.331Z,12.70
2019-03-04T06:20:55.598Z,12.60
2019-03-04T06:23:21.798Z,12.60
2019-03-04T06:25:48.212Z,12.50
2019-03-04T06:28:14.475Z,12.40
2019-03-04T06:30:40.862Z,12.30
2019-03-04T06:33:07.074Z,12.20
2019-03-04T06:35:33.298Z,12.10
2019-03-04T06:37:59.510Z,11.90
2019-03-04T06:40:25.731Z,11.30
2019-03-04T06:42:52.102Z,10.80
2019-03-04T06:45:20.190Z,10.30
2019-03-04T06:47:46.519Z,10.00
2019-03-04T06:50:45.835Z,9.80
2019-03-04T06:53:34.046Z,9.70
2019-03-04T06:56:16.091Z,9.70
2019-03-04T06:58:54.994Z,9.90
2019-03-04T07:01:25.018Z,10.50
2019-03-04T07:03:55.046Z,10.60
2019-03-04T07:06:21.392Z,10.60
2019-03-04T07:08:51.482Z,10.60
2019-03-04T07:11:17.794Z,10.60
2019-03-04T07:13:44.207Z,10.60
2019-03-04T07:16:10.460Z,10.70
2019-03-04T07:18:36.760Z,10.70
2019-03-04T07:21:03.067Z,10.70
2019-03-04T07:23:29.410Z,10.80
2019-03-04T07:25:56.046Z,10.80
2019-03-04T07:28:22.359Z,10.80
2019-03-04T07:30:48.626Z,10.80
2019-03-04T07:33:15.278Z,10.60
2019-03-04T07:35:41.835Z,10.30
2019-03-04T07:38:21.059Z,9.90
2019-03-04T07:40:47.316Z,9.80
2019-03-04T07:43:13.522Z,9.80
2019-03-04T07:45:39.759Z,9.90
2019-03-04T07:48:06.093Z,10.00
2019-03-04T07:50:32.522Z,10.10
2019-03-04T07:52:58.807Z,10.20
2019-03-04T07:55:25.163Z,10.20
2019-03-04T07:57:51.446Z,10.10
2019-03-04T08:00:17.683Z,10.20
2019-03-04T08:02:44.007Z,10.10
2019-03-04T08:05:11.427Z,10.10
2019-03-04T08:08:05.655Z,10.30
2019-03-04T08:10:47.836Z,10.50
2019-03-04T08:13:23.937Z,10.50
2019-03-04T08:15:50.261Z,10.50
2019-03-04T08:18:16.598Z,10.50
2019-03-04T08:20:43.002Z,10.50
2019-03-04T08:23:10.115Z,10.50
2019-03-04T08:25:36.642Z,10.40
2019-03-04T08:28:04.879Z,10.30
2019-03-04T08:30:31.211Z,10.30
2019-03-04T08:32:57.461Z,10.30
2019-03-04T08:35:23.682Z,10.50
2019-03-04T08:37:49.906Z,10.70
2019-03-04T08:40:16.219Z,10.80
2019-03-04T08:42:42.751Z,10.90
2019-03-04T08:45:14.511Z,10.90
2019-03-04T08:47:40.824Z,10.90
2019-03-04T08:50:15.143Z,11.00
2019-03-04T08:52:41.359Z,11.00
2019-03-04T08:55:10.195Z,11.10
2019-03-04T08:57:36.544Z,11.10
2019-03-04T09:00:06.882Z,11.20
2019-03-04T09:02:33.081Z,11.30
2019-03-04T09:04:59.310Z,11.40
2019-03-04T09:07:25.527Z,11.50
2019-03-04T09:09:51.847Z,11.50
2019-03-04T09:12:18.062Z,11.50
2019-03-04T09:14:44.494Z,11.50
2019-03-04T09:17:10.810Z,11.50
2019-03-04T09:19:37.390Z,11.40
2019-03-04T09:22:03.600Z,11.40
2019-03-04T09:24:29.806Z,11.30
2019-03-04T09:26:56.030Z,11.40
2019-03-04T09:29:22.249Z,11.50
2019-03-04T09:31:48.526Z,11.60
2019-03-04T09:34:14.738Z,11.60
2019-03-04T09:36:40.971Z,11.80
2019-03-04T09:39:08.506Z,11.70
2019-03-04T09:41:34.823Z,11.60
2019-03-04T09:44:01.019Z,11.60
2019-03-04T09:46:27.247Z,11.70
2019-03-04T09:48:53.647Z,11.80
2019-03-04T09:51:24.471Z,11.70
2019-03-04T09:53:48.012Z,11.70
2019-03-04T09:56:14.350Z,11.40
2019-03-04T09:58:40.575Z,11.40
2019-03-04T10:01:13.659Z,11.50
2019-03-04T10:03:52.647Z,11.50
2019-03-04T10:06:42.576Z,11.60
2019-03-04T10:09:21.870Z,11.60
2019-03-04T10:12:04.122Z,11.80
2019-03-04T10:14:45.587Z,12.10
2019-03-04T10:17:33.908Z,12.20
2019-03-04T10:20:21.538Z,12.30
2019-03-04T10:23:06.318Z,12.60
2019-03-04T10:26:10.010Z,12.60
2019-03-04T10:28:52.298Z,12.70
2019-03-04T10:31:36.827Z,12.50
2019-03-04T10:37:02.435Z,12.80
2019-03-04T10:39:38.363Z,12.80
2019-03-04T10:42:28.188Z,13.00
2019-03-04T10:45:13.348Z,13.00
2019-03-04T10:47:39.651Z,12.90
2019-03-04T10:55:01.026Z,13.20
2019-03-04T10:57:27.255Z,13.00
2019-03-04T10:59:53.554Z,13.10
2019-03-04T11:02:19.783Z,13.20
2019-03-04T11:04:45.990Z,13.20
2019-03-04T11:07:12.432Z,13.10
2019-03-04T11:09:38.788Z,12.90
2019-03-04T11:12:05.062Z,12.80
2019-03-04T11:14:31.471Z,12.70
2019-03-04T11:24:18.337Z,11.90
2019-03-04T11:26:44.891Z,11.80
2019-03-04T11:29:13.232Z,11.80
2019-03-04T11:31:39.499Z,12.00
2019-03-04T11:34:05.729Z,11.80
2019-03-04T11:36:32.023Z,11.80
2019-03-04T11:39:03.446Z,11.80
2019-03-04T11:41:29.676Z,11.80
2019-03-04T11:43:55.898Z,11.80
2019-03-04T11:46:23.207Z,11.80
2019-03-04T11:48:49.533Z,11.90
2019-03-04T11:51:15.757Z,11.70
2019-03-04T12:30:28.901Z,6.70
2019-03-04T12:32:55.094Z,6.80
2019-03-04T12:35:21.583Z,6.80
2019-03-04T12:37:47.900Z,6.90
2019-03-04T12:40:19.249Z,6.90
2019-03-04T12:45:14.406Z,7.10
2019-03-04T12:47:41.309Z,7.20
2019-03-04T12:50:14.297Z,7.50
2019-03-04T12:52:40.494Z,7.90
2019-03-04T12:55:08.402Z,8.00
2019-03-04T12:57:34.739Z,8.10
2019-03-04T13:02:27.974Z,7.90
2019-03-04T13:04:54.350Z,7.90
2019-03-04T13:07:20.575Z,8.10
2019-03-04T13:09:46.982Z,8.20
2019-03-04T13:12:13.198Z,8.30
2019-03-04T13:14:39.426Z,8.30
2019-03-04T13:17:05.718Z,8.30
2019-03-04T13:19:31.910Z,8.20
2019-03-04T13:22:05.626Z,8.10
2019-03-04T13:26:52.899Z,8.10
2019-03-04T13:29:19.913Z,8.20
2019-03-04T13:31:46.671Z,8.10
2019-03-04T13:34:12.891Z,8.20
2019-03-04T13:36:39.098Z,8.30
2019-03-04T13:39:05.834Z,8.30
2019-03-04T13:41:34.044Z,8.40
2019-03-04T13:44:00.276Z,8.40
2019-03-04T13:46:27.030Z,8.50
2019-03-04T15:36:44.767Z,11.20
2019-03-04T15:39:22.282Z,11.10
2019-03-04T15:41:41.194Z,11.70
2019-03-04T15:44:07.417Z,13.20
2019-03-04T15:46:33.631Z,13.80
2019-03-04T15:48:59.851Z,13.70
2019-03-04T15:51:26.078Z,14.50
2019-03-04T15:53:52.493Z,14.30
2019-03-04T15:56:18.843Z,15.20
2019-03-04T15:58:45.063Z,15.50
2019-03-04T16:01:11.569Z,15.70
2019-03-04T16:03:37.789Z,15.70
2019-03-04T16:06:04.194Z,15.40
2019-03-04T16:08:30.422Z,14.50
2019-03-04T16:10:56.755Z,14.20
2019-03-04T16:13:23.094Z,14.00
2019-03-04T16:15:49.290Z,14.30
2019-03-04T16:18:15.626Z,14.40
2019-03-04T16:20:41.931Z,14.30
2019-03-04T16:23:08.358Z,13.90
2019-03-04T16:25:34.866Z,13.80
2019-03-04T16:28:04.827Z,12.70
2019-03-04T16:30:31.530Z,11.80
2019-03-04T16:32:57.858Z,11.10
2019-03-04T16:35:24.058Z,10.80
2019-03-04T16:37:50.363Z,10.60
2019-03-04T16:40:19.190Z,10.80
2019-03-04T16:42:45.400Z,10.90
2019-03-04T16:45:15.435Z,10.50
2019-03-04T16:47:41.933Z,10.10
2019-03-04T16:50:17.819Z,9.80
2019-03-04T16:52:46.527Z,9.60
2019-03-04T16:55:13.963Z,9.40
2019-03-04T16:57:40.355Z,9.30
2019-03-04T17:00:12.928Z,9.20
2019-03-04T17:02:39.332Z,9.00
2019-03-04T17:05:08.555Z,8.90
2019-03-04T17:07:35.136Z,8.80
2019-03-04T17:10:01.462Z,8.80
2019-03-04T17:12:27.676Z,8.80
2019-03-04T17:14:53.998Z,8.70
2019-03-04T17:17:20.411Z,8.70
2019-03-04T17:19:46.630Z,8.50
2019-03-04T17:22:12.931Z,8.40
2019-03-04T17:24:39.642Z,8.40
2019-03-04T17:27:05.892Z,8.40
2019-03-04T17:29:32.195Z,8.40
2019-03-04T17:31:58.418Z,8.30
2019-03-04T17:34:24.621Z,8.30
2019-03-04T17:36:50.847Z,8.20
2019-03-04T17:39:17.073Z,8.20
2019-03-04T17:41:43.295Z,8.20
2019-03-04T17:44:09.507Z,8.10
2019-03-04T17:46:35.722Z,8.10
2019-03-04T17:49:02.027Z,8.10
2019-03-04T17:51:28.246Z,8.10
2019-03-04T17:53:54.660Z,8.10
2019-03-04T17:56:21.027Z,8.00
2019-03-04T17:58:47.487Z,8.00
2019-03-04T18:01:13.820Z,8.10
2019-03-04T18:03:40.033Z,8.10
2019-03-04T18:06:06.353Z,8.10
2019-03-04T18:08:32.555Z,8.10
2019-03-04T18:10:59.289Z,8.20
2019-03-04T18:13:25.503Z,8.20
2019-03-04T18:15:51.910Z,8.10
2019-03-04T18:18:18.186Z,8.10
2019-03-04T18:20:44.407Z,8.10
2019-03-04T18:23:10.802Z,8.10
2019-03-04T18:25:53.101Z,8.10
2019-03-04T18:28:32.362Z,8.00
2019-03-04T18:31:14.507Z,8.00
2019-03-04T18:34:01.369Z,8.10
2019-03-04T18:36:40.535Z,8.10
2019-03-04T18:39:32.336Z,8.10
2019-03-04T18:42:08.260Z,8.10
2019-03-04T18:44:38.267Z,8.00
2019-03-04T18:47:35.840Z,8.00
2019-03-04T18:50:03.181Z,8.00
2019-03-04T18:52:29.527Z,8.00
2019-03-04T18:54:55.776Z,7.90
2019-03-04T18:57:22.092Z,7.90
2019-03-04T18:59:48.418Z,7.80
2019-03-04T19:02:14.835Z,7.90
2019-03-04T19:04:41.067Z,7.90
2019-03-04T19:07:07.270Z,7.80
2019-03-04T19:09:33.618Z,7.80
2019-03-04T19:11:59.927Z,7.80
2019-03-04T19:14:26.151Z,7.80
2019-03-04T19:16:52.358Z,7.70
2019-03-04T19:19:18.702Z,7.70
2019-03-04T19:21:44.906Z,7.70
2019-03-04T19:24:11.106Z,7.60
2019-03-04T19:26:37.429Z,7.60
2019-03-04T19:29:03.742Z,7.50
2019-03-04T19:31:29.971Z,7.50
2019-03-04T19:34:02.005Z,7.50
2019-03-04T19:36:28.406Z,7.50
2019-03-04T19:38:54.719Z,7.50
2019-03-04T19:41:21.044Z,7.50
2019-03-04T19:43:47.271Z,7.50
2019-03-04T19:46:13.791Z,7.40
2019-03-04T19:48:40.007Z,7.30
2019-03-04T19:51:06.343Z,7.30
2019-03-04T19:53:32.555Z,7.30
2019-03-04T19:55:58.950Z,7.20
2019-03-04T19:58:25.659Z,7.20
2019-03-04T20:00:52.085Z,7.20
2019-03-04T20:03:18.793Z,7.30
2019-03-04T20:05:45.133Z,7.40
2019-03-04T20:08:11.729Z,7.40
2019-03-04T20:10:38.154Z,7.50
2019-03-04T20:13:04.715Z,7.50
2019-03-04T20:15:35.556Z,7.50
2019-03-04T20:18:01.878Z,7.50
2019-03-04T20:20:28.290Z,7.50
2019-03-04T20:22:54.610Z,7.50
2019-03-04T20:25:22.036Z,7.50
2019-03-04T20:27:51.087Z,7.50
2019-03-04T20:30:19.036Z,7.50
2019-03-04T20:32:45.542Z,7.50
2019-03-04T20:35:13.042Z,7.50
2019-03-04T20:37:42.787Z,7.50
2019-03-04T20:40:09.958Z,7.50
2019-03-04T20:42:36.378Z,7.50
2019-03-04T20:45:06.235Z,7.50
2019-03-04T20:47:32.656Z,7.60
2019-03-04T20:49:58.871Z,7.60
2019-03-04T20:52:25.096Z,7.60
2019-03-04T20:54:51.302Z,7.50
2019-03-04T20:57:17.622Z,7.50
2019-03-04T20:59:55.950Z,7.40
2019-03-04T21:02:22.431Z,7.40
2019-03-04T21:05:09.040Z,7.40
2019-03-04T21:07:35.322Z,7.30
2019-03-04T21:10:01.942Z,7.30
2019-03-04T21:12:28.247Z,7.30
2019-03-04T21:14:54.565Z,7.30
2019-03-04T21:17:21.102Z,7.30
2019-03-04T21:19:47.338Z,7.40
2019-03-04T21:22:13.559Z,7.40
2019-03-04T21:24:39.886Z,7.30
2019-03-04T21:27:06.390Z,7.30
2019-03-04T21:29:36.434Z,7.30
2019-03-04T21:32:18.426Z,7.30
2019-03-04T21:35:12.298Z,7.30
2019-03-04T21:37:40.125Z,7.30
2019-03-04T21:40:13.451Z,7.40
2019-03-04T21:42:48.961Z,7.40
2019-03-04T21:45:35.876Z,7.40
2019-03-04T21:48:08.794Z,7.40
2019-03-04T21:50:44.346Z,7.40
2019-03-04T21:53:20.470Z,7.50
2019-03-04T21:55:53.680Z,7.50
2019-03-04T21:58:20.407Z,7.40
2019-03-04T22:00:50.439Z,7.40
2019-03-04T22:03:18.469Z,7.40
2019-03-04T22:05:50.084Z,7.50
2019-03-04T22:08:13.200Z,7.50
2019-03-04T22:10:39.625Z,7.40
2019-03-04T22:13:06.128Z,7.40
2019-03-04T22:15:32.573Z,7.40
2019-03-04T22:17:59.142Z,7.30
2019-03-04T22:20:25.359Z,7.30
2019-03-04T22:22:51.577Z,7.30
2019-03-04T22:25:17.801Z,7.40
2019-03-04T22:27:44.040Z,7.40
2019-03-04T22:30:16.082Z,7.40
2019-03-04T22:32:42.602Z,7.40
2019-03-04T22:35:13.502Z,7.50
2019-03-04T22:37:40.316Z,7.50
2019-03-04T22:40:10.031Z,7.50
2019-03-04T22:42:36.388Z,7.50
2019-03-04T22:45:06.106Z,7.50
2019-03-04T22:47:32.348Z,7.60
2019-03-04T22:49:58.697Z,7.50
2019-03-04T22:52:24.937Z,7.50
2019-03-04T22:54:51.241Z,7.50
2019-03-04T22:57:17.462Z,7.60
2019-03-04T22:59:43.681Z,7.60
2019-03-04T23:02:09.902Z,7.60
2019-03-04T23:04:36.106Z,7.60
2019-03-04T23:07:05.220Z,7.50
2019-03-04T23:09:47.475Z,7.50
2019-03-04T23:12:33.094Z,7.50
2019-03-04T23:14:59.403Z,7.40
2019-03-04T23:17:25.776Z,7.40
2019-03-04T23:19:52.102Z,7.50
2019-03-04T23:22:18.314Z,7.40
2019-03-04T23:24:44.538Z,7.40
2019-03-04T23:27:10.745Z,7.40
2019-03-04T23:29:36.987Z,7.30
2019-03-04T23:32:03.403Z,7.30
2019-03-04T23:34:29.623Z,7.30
2019-03-04T23:36:55.926Z,7.30
2019-03-04T23:39:22.156Z,7.40
2019-03-04T23:41:48.479Z,7.40
2019-03-04T23:44:14.698Z,7.40
2019-03-04T23:46:40.903Z,7.30
2019-03-04T23:49:07.131Z,7.30
2019-03-04T23:51:33.542Z,7.30
2019-03-04T23:53:59.766Z,7.30
2019-03-04T23:56:25.977Z,7.20
2019-03-04T23:58:52.271Z,7.20
